Orbital elements of COSMOS 2034
| Launched | 24 July 1989 |
| Flight ended | – |
| Launch site | Plesetsk Missile and Space Complex, Russia |
| Owner | Commonwealth of Independent States (former USSR) |
| NORAD ID | 20149 |
| Date fetched |
Epoch osculation |
Inc. [°] |
Ecc. | RA asc node [hr] |
Arg Peri. [°] |
Mean anom [°] |
Mean motion [rev/day] |
Abs. mag |
| Date fetched |
Epoch osculation |
Inc. [°] |
Ecc. | RA asc node [hr] |
Arg Peri. [°] |
Mean anom [°] |
Mean motion [rev/day] |
Abs. mag |
| 2026 May 07 17:58 | 2026 May 05 10:57:06 | 82.9411 | 0.00313 | 16.4258 | 6.4726 | 61.8210 | 13.73694 | 6.743 |
| 2026 May 06 17:57 | 2026 May 05 10:57:06 | 82.9411 | 0.00313 | 16.4258 | 6.4726 | 61.8210 | 13.73694 | 6.743 |
| 2026 May 05 17:57 | 2026 May 05 10:57:06 | 82.9411 | 0.00313 | 16.4258 | 6.4726 | 61.8210 | 13.73694 | 6.743 |
| 2026 May 04 17:57 | 2026 Apr 30 15:17:55 | 82.9403 | 0.00316 | 16.6634 | 19.7876 | 61.8210 | 13.73694 | 6.743 |
| 2026 May 03 17:57 | 2026 Apr 30 15:17:55 | 82.9403 | 0.00316 | 16.6634 | 19.7876 | 61.8210 | 13.73694 | 6.743 |
| 2026 May 02 17:57 | 2026 Apr 30 15:17:55 | 82.9403 | 0.00316 | 16.6634 | 19.7876 | 61.8210 | 13.73694 | 6.743 |
| 2026 May 01 17:56 | 2026 Apr 30 15:17:55 | 82.9403 | 0.00316 | 16.6634 | 19.7876 | 61.8210 | 13.73694 | 6.743 |
| 2026 Apr 30 17:56 | 2026 Apr 30 15:17:55 | 82.9403 | 0.00316 | 16.6634 | 19.7876 | 61.8210 | 13.73694 | 6.743 |
| 2026 Apr 29 17:57 | 2026 Apr 24 10:56:49 | 82.9395 | 0.00320 | 16.9681 | 36.6649 | 61.8210 | 13.73694 | 6.743 |
| 2026 Apr 28 17:56 | 2026 Apr 24 10:56:49 | 82.9395 | 0.00320 | 16.9681 | 36.6649 | 61.8210 | 13.73694 | 6.743 |
| 2026 Apr 27 17:58 | 2026 Apr 24 10:56:49 | 82.9395 | 0.00320 | 16.9681 | 36.6649 | 61.8210 | 13.73694 | 6.743 |
| 2026 Apr 26 17:58 | 2026 Apr 24 10:56:49 | 82.9395 | 0.00320 | 16.9681 | 36.6649 | 61.8210 | 13.73694 | 6.743 |
| 2026 Apr 25 17:58 | 2026 Apr 24 10:56:49 | 82.9395 | 0.00320 | 16.9681 | 36.6649 | 61.8210 | 13.73694 | 6.743 |
| 2026 Apr 24 17:59 | 2026 Apr 24 10:56:49 | 82.9395 | 0.00320 | 16.9681 | 36.6649 | 61.8210 | 13.73694 | 6.743 |
| 2026 Apr 23 17:57 | 2026 Apr 19 12:05:59 | 82.9385 | 0.00322 | 17.2122 | 50.0652 | 61.8210 | 13.73694 | 6.743 |
| 2026 Apr 22 17:57 | 2026 Apr 19 12:05:59 | 82.9385 | 0.00322 | 17.2122 | 50.0652 | 61.8210 | 13.73694 | 6.743 |
| 2026 Apr 21 17:57 | 2026 Apr 19 12:05:59 | 82.9385 | 0.00322 | 17.2122 | 50.0652 | 61.8210 | 13.73694 | 6.743 |
| 2026 Apr 20 17:57 | 2026 Apr 19 12:05:59 | 82.9385 | 0.00322 | 17.2122 | 50.0652 | 61.8210 | 13.73694 | 6.743 |
| 2026 Apr 19 17:58 | 2026 Apr 19 12:05:59 | 82.9385 | 0.00322 | 17.2122 | 50.0652 | 61.8210 | 13.73694 | 6.743 |
| 2026 Apr 18 17:56 | 2026 Apr 13 04:32:23 | 82.9377 | 0.00325 | 17.5236 | 66.9872 | 61.8210 | 13.73694 | 6.743 |
| 2026 Apr 16 17:57 | 2026 Apr 13 04:32:23 | 82.9377 | 0.00325 | 17.5236 | 66.9872 | 61.8210 | 13.73694 | 6.743 |
| 2026 Apr 14 17:57 | 2026 Apr 13 04:32:23 | 82.9377 | 0.00325 | 17.5236 | 66.9872 | 61.8210 | 13.73694 | 6.743 |
| 2026 Apr 13 17:57 | 2026 Apr 13 04:32:23 | 82.9377 | 0.00325 | 17.5236 | 66.9872 | 61.8210 | 13.73694 | 6.743 |
| 2026 Apr 12 17:57 | 2026 Apr 08 13:54:14 | 82.9372 | 0.00326 | 17.7509 | 79.3100 | 61.8210 | 13.73694 | 6.743 |
| 2026 Apr 11 17:57 | 2026 Apr 08 13:54:14 | 82.9372 | 0.00326 | 17.7509 | 79.3100 | 61.8210 | 13.73694 | 6.743 |
| 2026 Apr 10 17:58 | 2026 Apr 08 13:54:14 | 82.9372 | 0.00326 | 17.7509 | 79.3100 | 61.8210 | 13.73694 | 6.743 |